Latest Weather Observations for Carters Bore

IDQ60801

Issued at 6:35 pm EST Tuesday 21 October 2014 (issued every 30 minutes, with the page automatically refreshed every 10 minutes)

About weather observations | Map of weather stations | Latest weather observations for QLD | Other Formats
Station Details ID: 037053 Name: CARTERS BORE Lat: -20.94 Lon: 139.30 Height: 396.0 m
Data from the previous 72 hours. | See also: Recent months for locations in Queensland
Date/Time
EST
Temp
°C
App
Temp
°C
Dew
Point
Rel
Hum
%
Delta-T
°C
Wind Press
QNH
hPa
Press
MSL
hPa
Rain
since 9 am
mm
Dir
 
Spd
km/h
Gust
km/h
Spd
kts
Gust
kts
21/06:30pm 32.5 28.9 0.6 13 15.9 E 9 15 5 8 - - 0.0
21/06:00pm 33.0 29.4 0.9 13 16.2 ESE 9 17 5 9 - - 0.0
21/05:30pm 33.7 30.4 0.4 12 16.7 ESE 7 17 4 9 - - 0.0
21/05:00pm 34.1 30.1 0.7 12 16.9 ESE 11 26 6 14 - - 0.0
21/04:30pm 33.6 30.3 0.3 12 16.7 SE 7 15 4 8 - - 0.0
21/04:00pm 33.7 30.0 2.5 14 16.2 E 11 22 6 12 - - 0.0
21/03:30pm 33.8 30.7 1.6 13 16.5 SE 7 15 4 8 - - 0.0
21/03:00pm 33.7 30.0 2.5 14 16.2 SSE 11 20 6 11 - - 0.0
21/02:30pm 33.2 30.6 3.1 15 15.7 N 6 19 3 10 - - 0.0
21/02:00pm 32.8 29.6 2.8 15 15.6 ENE 9 19 5 10 - - 0.0
21/01:30pm 32.6 29.9 3.5 16 15.3 ENE 7 15 4 8 - - 0.0
21/01:00pm 32.1 28.1 3.1 16 15.1 ENE 13 24 7 13 - - 0.0
21/12:30pm 31.5 27.9 5.1 19 14.1 NNE 13 20 7 11 - - 0.0
21/12:00pm 31.1 28.0 5.5 20 13.8 NE 11 22 6 12 - - 0.0
21/11:30am 30.7 25.8 5.2 20 13.6 NNE 20 30 11 16 - - 0.0
21/11:00am 30.3 25.7 5.6 21 13.2 ENE 19 30 10 16 - - 0.0
21/10:30am 29.5 24.9 5.6 22 12.8 ENE 19 33 10 18 - - 0.0
21/10:00am 29.3 24.2 6.0 23 12.5 NE 22 37 12 20 - - 0.0
21/09:30am 29.3 24.5 4.7 21 12.9 NE 19 33 10 18 - - 0.0
21/09:00am 28.0 22.9 4.3 22 12.3 NE 20 30 11 16 - - 0.0
21/08:30am 27.3 21.9 4.4 23 11.8 NE 22 33 12 18 - - 0.0
21/08:00am 26.8 22.6 4.0 23 11.6 ENE 15 26 8 14 - - 0.0
21/07:30am 25.4 23.0 4.5 26 10.7 ENE 6 11 3 6 - - 0.0
21/07:00am 23.0 20.4 3.0 27 9.8 ENE 6 9 3 5 - - 0.0
21/06:30am 21.2 18.4 3.0 30 8.8 E 7 7 4 4 - - 0.0
21/06:00am 20.2 17.4 2.1 30 8.5 ENE 6 7 3 4 - - 0.0
21/05:30am 20.8 17.9 1.6 28 9.0 ENE 6 7 3 4 - - 0.0
21/05:00am 21.4 18.5 1.7 27 9.3 ENE 6 7 3 4 - - 0.0
21/04:30am 22.5 19.4 1.5 25 10.0 ENE 7 9 4 5 - - 0.0
21/04:00am 22.6 19.4 1.0 24 10.1 ENE 7 9 4 5 - - 0.0
21/03:30am 24.2 21.1 1.2 22 11.0 E 7 11 4 6 - - 0.0
21/03:00am 24.7 21.1 0.9 21 11.3 E 9 13 5 7 - - 0.0
21/02:30am 23.8 20.6 0.8 22 10.9 E 7 9 4 5 - - 0.0
21/02:00am 25.6 22.4 1.0 20 11.8 E 7 13 4 7 - - 0.0
21/01:30am 26.0 22.5 1.3 20 12.0 E 9 13 5 7 - - 0.0
21/01:00am 24.2 21.4 1.8 23 10.8 E 6 7 3 4 - - 0.0
21/12:30am 24.9 22.0 1.7 22 11.2 E 6 9 3 5 - - 0.0
21/12:00am 25.4 22.6 2.2 22 11.4 E 6 7 3 4 - - 0.0
 
Date/Time
EST
Temp
°C
App
Temp
°C
Dew
Point
Rel
Hum
%
Delta-T
°C
Wind Press
QNH
hPa
Press
MSL
hPa
Rain
since 9 am
mm
Dir
 
Spd
km/h
Gust
km/h
Spd
kts
Gust
kts
20/11:30pm 25.2 22.4 2.0 22 11.3 ENE 6 6 3 3 - - 0.0
20/11:00pm 26.1 23.2 1.4 20 12.0 ENE 6 7 3 4 - - 0.0
20/10:30pm 27.4 24.4 1.8 19 12.6 E 7 9 4 5 - - 0.0
20/10:00pm 28.2 25.2 1.7 18 13.1 E 7 9 4 5 - - 0.0
20/09:30pm 29.1 25.7 1.6 17 13.7 E 9 15 5 8 - - 0.0
20/09:00pm 29.7 26.2 1.2 16 14.1 E 9 15 5 8 - - 0.0
20/08:30pm 30.1 26.6 1.5 16 14.3 ESE 9 13 5 7 - - 0.0
20/08:00pm 30.5 27.5 1.9 16 14.4 E 7 13 4 7 - - 0.0
20/07:30pm 30.8 27.8 2.1 16 14.5 ESE 7 9 4 5 - - 0.0
20/07:00pm 31.4 27.6 1.7 15 15.0 ESE 11 19 6 10 - - 0.0
20/06:30pm 32.1 27.8 1.3 14 15.5 E 13 22 7 12 - - 0.0
20/06:00pm 32.9 28.8 -0.2 12 16.4 E 11 20 6 11 - - 0.0
20/05:30pm 32.9 29.5 1.9 14 15.9 E 9 20 5 11 - - 0.0
20/05:00pm 33.6 29.0 1.4 13 16.4 E 15 24 8 13 - - 0.0
20/04:30pm 33.3 28.6 1.2 13 16.3 E 15 26 8 14 - - 0.0
20/04:00pm 33.6 28.4 0.3 12 16.7 SE 17 26 9 14 - - 0.0
20/03:30pm 33.6 29.0 1.4 13 16.4 ENE 15 26 8 14 - - 0.0
20/03:00pm 33.0 28.9 2.0 14 15.9 E 13 28 7 15 - - 0.0
20/02:30pm 33.4 28.9 2.3 14 16.1 ENE 15 24 8 13 - - 0.0
20/02:00pm 32.5 28.6 3.5 16 15.2 NE 13 26 7 14 - - 0.0
20/01:30pm 31.7 28.4 4.5 18 14.4 ESE 11 20 6 11 - - 0.0
20/01:00pm 32.3 28.6 4.2 17 14.9 E 13 24 7 13 - - 0.0
20/12:30pm 31.9 28.9 6.2 20 14.0 NE 11 22 6 12 - - 0.0
20/12:00pm 31.5 28.5 5.8 20 13.9 E 11 22 6 12 - - 0.0
20/11:30am 30.2 27.1 5.5 21 13.2 NE 11 20 6 11 - - 0.0
20/11:00am 30.6 26.9 6.5 22 13.1 ENE 15 26 8 14 - - 0.0
20/10:30am 29.3 24.9 6.7 24 12.3 ENE 19 28 10 15 - - 0.0
20/10:00am 29.2 24.9 7.2 25 12.0 NE 19 35 10 19 - - 0.0
20/09:30am 27.9 23.6 7.2 27 11.2 NE 19 30 10 16 - - 0.0
20/09:00am 27.7 23.5 7.5 28 11.0 NE 19 26 10 14 - - 0.0
20/08:30am 26.9 22.6 6.9 28 10.8 ENE 19 26 10 14 - - 0.0
20/08:00am 26.1 22.0 6.2 28 10.5 ENE 17 28 9 15 - - 0.0
20/07:30am 25.7 22.5 5.3 27 10.6 ENE 11 19 6 10 - - 0.0
20/07:00am 24.9 22.1 5.2 28 10.2 ENE 9 13 5 7 - - 0.0
20/06:30am 23.8 21.0 5.2 30 9.5 E 9 17 5 9 - - 0.0
20/06:00am 23.6 20.8 5.0 30 9.5 E 9 15 5 8 - - 0.0
20/05:30am 23.7 20.9 5.1 30 9.5 E 9 13 5 7 - - 0.0
20/05:00am 24.5 21.3 5.3 29 9.9 E 11 20 6 11 - - 0.0
20/04:30am 24.8 21.3 5.6 29 10.0 E 13 22 7 12 - - 0.0
20/04:00am 24.9 21.7 5.2 28 10.2 E 11 19 6 10 - - 0.0
20/03:30am 25.4 21.4 5.1 27 10.5 E 15 22 8 12 - - 0.0
20/03:00am 25.8 21.8 4.9 26 10.8 E 15 22 8 12 - - 0.0
20/02:30am 26.2 22.5 4.6 25 11.1 E 13 28 7 15 - - 0.0
20/02:00am 26.3 22.9 4.1 24 11.3 E 11 19 6 10 - - 0.0
20/01:30am 26.6 23.2 3.8 23 11.6 E 11 17 6 9 - - 0.0
20/01:00am 26.7 23.5 3.2 22 11.8 E 9 19 5 10 - - 0.0
20/12:30am 26.8 23.5 2.7 21 12.0 E 9 11 5 6 - - 0.0
20/12:00am 27.2 23.9 2.3 20 12.4 E 9 13 5 7 - - 0.0
 
Date/Time
EST
Temp
°C
App
Temp
°C
Dew
Point
Rel
Hum
%
Delta-T
°C
Wind Press
QNH
hPa
Press
MSL
hPa
Rain
since 9 am
mm
Dir
 
Spd
km/h
Gust
km/h
Spd
kts
Gust
kts
19/11:30pm 27.9 24.6 2.2 19 12.8 E 9 17 5 9 - - 0.0
19/11:00pm 28.4 24.2 1.8 18 13.2 E 13 20 7 11 - - 0.0
19/10:30pm 28.7 24.8 1.3 17 13.5 E 11 19 6 10 - - 0.0
19/10:00pm 29.0 25.4 0.7 16 13.8 E 9 19 5 10 - - 0.0
19/09:30pm 29.2 25.2 0.8 16 13.9 ESE 11 17 6 9 - - 0.0
19/09:00pm 29.2 26.2 1.7 17 13.7 E 7 13 4 7 - - 0.0
19/08:30pm 29.4 26.5 2.6 18 13.6 ESE 7 11 4 6 - - 0.0
19/08:00pm 30.1 27.2 2.4 17 14.1 E 7 11 4 6 - - 0.0
19/07:30pm 30.5 27.2 2.7 17 14.2 E 9 13 5 7 - - 0.0
19/07:00pm 31.2 26.6 1.5 15 14.9 ESE 15 20 8 11 - - 0.0
19/06:30pm 31.8 27.7 0.0 13 15.7 ESE 11 22 6 12 - - 0.0
19/06:00pm 32.5 27.8 0.6 13 15.9 SE 15 24 8 13 - - 0.0
19/05:30pm 33.0 28.5 -0.2 12 16.4 SE 13 22 7 12 - - 0.0
19/05:00pm 32.9 28.2 0.9 13 16.1 ESE 15 24 8 13 - - 0.0
19/04:30pm 33.2 28.9 1.1 13 16.2 SE 13 22 7 12 - - 0.0
19/04:00pm 33.3 28.9 0.1 12 16.5 SE 13 22 7 12 - - 0.0
19/03:30pm 33.3 29.4 1.2 13 16.3 SSE 11 20 6 11 - - 0.0
19/03:00pm 32.3 28.3 0.4 13 15.9 ESE 11 20 6 11 - - 0.0
19/02:30pm 33.1 29.4 2.1 14 15.9 NE 11 24 6 13 - - 0.0
19/02:00pm 32.2 28.7 1.3 14 15.6 ESE 9 20 5 11 - - 0.0
19/01:30pm 31.7 27.4 1.0 14 15.4 E 13 19 7 10 - - 0.0
19/01:00pm 31.8 26.9 2.0 15 15.2 NE 17 24 9 13 - - 0.0
19/12:30pm 31.6 26.7 1.8 15 15.1 ENE 17 30 9 16 - - 0.0
19/12:00pm 31.0 25.8 2.3 16 14.6 NNE 19 26 10 14 - - 0.0
19/11:30am 30.8 25.6 3.8 18 14.1 NE 20 33 11 18 - - 0.0
19/11:00am 30.3 24.1 4.1 19 13.7 ENE 26 35 14 19 - - 0.0
19/10:30am 29.3 23.4 4.0 20 13.1 NNE 24 37 13 20 - - 0.0
19/10:00am 29.1 23.7 4.6 21 12.8 NE 22 35 12 19 - - 0.0
19/09:30am 28.2 22.3 3.8 21 12.5 NNE 24 39 13 21 - - 0.0
19/09:00am 27.4 21.5 3.8 22 12.1 NE 24 37 13 20 - - 0.0
19/08:30am 26.6 20.2 3.2 22 11.8 NE 26 41 14 22 - - 0.0
19/08:00am 25.9 19.4 2.6 22 11.5 NE 26 37 14 20 - - 0.0
19/07:30am 25.5 20.2 1.6 21 11.6 NE 19 30 10 16 - - 0.0
19/07:00am 24.8 20.5 1.0 21 11.4 ENE 13 20 7 11 - - 0.0
19/06:30am 23.8 19.8 0.8 22 10.9 ENE 11 20 6 11 - - 0.0
19/06:00am 23.2 19.5 -0.3 21 10.8 E 9 17 5 9 - - 0.0
19/05:30am 22.1 18.4 -2.6 19 10.8 ENE 7 9 4 5 - - 0.0
19/05:00am 23.5 19.4 -2.9 17 11.6 ENE 9 17 5 9 - - 0.0
19/04:30am 23.6 19.0 -4.5 15 12.0 E 11 15 6 8 - - 0.0
19/04:00am 23.2 18.8 -5.7 14 12.0 E 9 13 5 7 - - 0.0
19/03:30am 23.0 18.8 -7.9 12 12.3 E 7 11 4 6 - - 0.0
19/03:00am 24.7 20.0 -8.9 10 13.3 E 9 13 5 7 - - 0.0
19/02:30am 24.5 20.2 -9.1 10 13.2 E 7 11 4 6 - - 0.0
19/02:00am 23.3 19.0 -11.3 9 12.9 E 6 7 3 4 - - 0.0
19/01:30am 25.2 20.3 -11.4 8 13.9 SE 9 13 5 7 - - 0.0
19/01:00am 25.3 20.4 -11.3 8 14.0 SE 9 11 5 6 - - 0.0
19/12:30am 25.6 21.1 -11.1 8 14.1 ESE 7 11 4 6 - - 0.0
19/12:00am 25.8 21.0 -10.9 8 14.2 SE 9 11 5 6 - - 0.0
 
Date/Time
EST
Temp
°C
App
Temp
°C
Dew
Point
Rel
Hum
%
Delta-T
°C
Wind Press
QNH
hPa
Press
MSL
hPa
Rain
since 9 am
mm
Dir
 
Spd
km/h
Gust
km/h
Spd
kts
Gust
kts
18/11:30pm 26.5 21.6 -12.1 7 14.7 SE 9 13 5 7 - - 0.0
18/11:00pm 26.9 22.0 -11.8 7 14.9 SE 9 13 5 7 - - 0.0
18/10:30pm 27.2 22.3 -11.5 7 15.0 SE 9 13 5 7 - - 0.0
18/10:00pm 26.9 22.5 -10.1 8 14.7 SE 7 11 4 6 - - 0.0
18/09:30pm 27.1 22.7 -9.9 8 14.8 SE 7 9 4 5 - - 0.0
18/09:00pm 27.7 23.4 -9.5 8 15.0 SE 7 9 4 5 - - 0.0
18/08:30pm 29.2 24.4 -10.1 7 15.9 SE 9 13 5 7 - - 0.0
18/08:00pm 29.4 25.2 -9.9 7 16.0 ESE 6 7 3 4 - - 0.0
18/07:30pm 30.5 26.2 -9.1 7 16.5 ESE 7 9 4 5 - - 0.0
18/07:00pm 31.6 27.2 -10.3 6 17.3 ESE 7 11 4 6 - - 0.0

Other Formats:

Comma delimited format used in spreadsheet applications
http://www.bom.gov.au/fwo/IDQ60801/IDQ60801.94347.axf

JavaScript Object Notation format (JSON) in row-major order
http://www.bom.gov.au/fwo/IDQ60801/IDQ60801.94347.json